Istanbul, Turkey

08:24 AM EEST on September 25, 2016 (GMT +0300)
Ataturk | | Change Station

Elev 121 ft 40.98 °N, 28.81 °E | Updated 34 minutes ago

Scattered Clouds
Mendung Tidak Merata
63 °F
Feels Like 63 °F
N
6
Angin Variable Angin from Variable

Siang Ini
High -- | Low -- °F
--% Chance of Precip.
Yesterday
High -- | Low -- °F
Precip. -- Inch
Tekanan 30.12 Inch
Jarak Pandang 6.2 Mil
Awan Few 3000 ft
Mendung Tidak Merata 10000 ft
Titik Embun 50 °F
Kelembaban 63%
Rainfall 0.00 Inch
Snow Depth Not available.
6:55 AM 6:56 PM
Waning Crescent, 31% visible
METAR LTBA 250450Z VRB05KT 9999 FEW030 SCT100 17/10 Q1020 NOSIG RMK RWY17L 01003KT 340V040 RWY05 04006KT RWY23 04003KT
Tekanan 30.12 Inch
Jarak Pandang 6.2 Mil
Awan Few 3000 ft
Mendung Tidak Merata 10000 ft
Titik Embun 50 °F
Kelembaban 63%
Rainfall 0.00 Inch
Snow Depth Not available.
6:55 AM 6:56 PM
Waning Crescent, 31% visible
METAR LTBA 250450Z VRB05KT 9999 FEW030 SCT100 17/10 Q1020 NOSIG RMK RWY17L 01003KT 340V040 RWY05 04006KT RWY23 04003KT

10-Day Weather Forecast

×

Almanac

Astronomi

Sep. 25, 2016 Rise Set
Actual Time
Civil Twilight
Nautical Twilight
Astronomical Twilight
Moon
Length Of Visible Light
Lama Satu Hari
Tomorrow will be .
, % of the Moon is Illuminated

Today's Extremes

Country Highs Country Lows

Community

WunderPhotos

Upload Photos

1,941,554 photos uploaded!

WunderBlog® & News

Nearby

Air Quality

  Air Quality AQ Index Pollutant
Not available.

Snow Depth

Station Depth Elevation

Earthquake Activity

City Distance Mag. Time & Date
Minimum magnitude displayed is 2.5.

Coastal Water Temperatures

Lokasi Temperatur

Stations

Nearby Weather Stations

Station Location Temp Angin Dingin Titik Embun Kelembaban Angin Precip. Elev Telah Diperbaharui Type